createdAt,value
2023-02-14T00:01:23.684Z,3.23
2023-02-14T00:03:51.395Z,3.26
2023-02-14T00:06:18.775Z,3.28
2023-02-14T00:08:46.284Z,3.29
2023-02-14T00:11:14.418Z,3.31
2023-02-14T00:14:02.189Z,3.33
2023-02-14T00:16:29.999Z,3.03
2023-02-14T00:19:04.415Z,3.32
2023-02-14T00:21:38.437Z,3.35
2023-02-14T00:24:09.383Z,3.38
2023-02-14T00:26:40.433Z,3.19
2023-02-14T00:29:11.660Z,3.37
2023-02-14T00:31:40.687Z,3.28
2023-02-14T00:34:09.720Z,3.35
2023-02-14T00:36:37.455Z,3.38
2023-02-14T00:39:07.938Z,3.36
2023-02-14T00:41:38.652Z,3.33
2023-02-14T00:44:06.959Z,3.36
2023-02-14T00:46:35.408Z,3.35
2023-02-14T00:49:03.363Z,3.31
2023-02-14T00:51:31.548Z,3.32
2023-02-14T00:53:59.013Z,3.33
2023-02-14T00:56:26.566Z,3.28
2023-02-14T00:58:54.442Z,3.27
2023-02-14T01:01:22.183Z,3.26
2023-02-14T01:03:49.900Z,3.25
2023-02-14T01:06:19.075Z,3.24
2023-02-14T01:08:46.834Z,3.28
2023-02-14T01:11:18.784Z,3.29
2023-02-14T01:13:48.236Z,3.29
2023-02-14T01:16:19.015Z,3.02
2023-02-14T01:18:47.294Z,3.02
2023-02-14T01:21:21.565Z,3.28
2023-02-14T01:23:52.520Z,3.29
2023-02-14T01:26:22.057Z,3.27
2023-02-14T01:28:49.936Z,3.28
2023-02-14T01:31:20.733Z,3.28
2023-02-14T01:33:49.333Z,3.30
2023-02-14T01:36:20.825Z,3.25
2023-02-14T01:38:51.177Z,2.98
2023-02-14T01:41:19.132Z,3.27
2023-02-14T01:43:57.314Z,3.31
2023-02-14T01:46:27.403Z,3.02
2023-02-14T01:49:18.418Z,2.96
2023-02-14T01:51:52.874Z,2.93
2023-02-14T01:54:26.113Z,3.18
2023-02-14T01:56:58.631Z,3.17
2023-02-14T01:59:31.448Z,3.17
2023-02-14T02:01:59.714Z,3.20
2023-02-14T02:04:51.203Z,3.16
2023-02-14T02:07:23.428Z,3.16
2023-02-14T02:09:56.034Z,3.10
2023-02-14T02:12:24.728Z,3.07
2023-02-14T02:14:55.255Z,3.08
2023-02-14T02:17:35.259Z,3.04
2023-02-14T02:20:21.540Z,3.09
2023-02-14T02:23:10.729Z,3.06
2023-02-14T02:26:16.893Z,2.69
2023-02-14T02:29:07.700Z,3.00
2023-02-14T02:31:47.392Z,2.95
2023-02-14T02:34:52.428Z,2.83
2023-02-14T02:37:27.206Z,2.80
2023-02-14T02:40:30.143Z,2.73
2023-02-14T02:43:16.445Z,2.69
2023-02-14T02:46:14.191Z,2.67
2023-02-14T02:48:58.569Z,2.59
2023-02-14T02:52:11.002Z,2.62
2023-02-14T02:54:49.262Z,2.52
2023-02-14T02:57:24.494Z,2.63
2023-02-14T02:59:56.012Z,2.61
2023-02-14T03:02:30.577Z,2.64
2023-02-14T03:05:04.576Z,2.66
2023-02-14T03:07:40.778Z,2.66
2023-02-14T03:10:25.508Z,2.63
2023-02-14T03:13:27.194Z,2.56
2023-02-14T03:16:26.991Z,2.44
2023-02-14T03:19:11.400Z,2.30
2023-02-14T03:22:29.627Z,2.29
2023-02-14T03:25:11.361Z,2.24
2023-02-14T03:27:47.003Z,2.15
2023-02-14T03:30:28.066Z,2.01
2023-02-14T03:33:04.481Z,1.84
2023-02-14T03:35:37.565Z,1.86
2023-02-14T03:38:22.087Z,1.83
2023-02-14T03:40:58.283Z,1.77
2023-02-14T03:43:50.005Z,1.72
2023-02-14T03:46:34.046Z,1.70
2023-02-14T03:49:06.157Z,1.64
2023-02-14T03:51:35.940Z,1.65
2023-02-14T03:54:07.103Z,1.64
2023-02-14T03:56:42.656Z,1.46
2023-02-14T03:59:23.905Z,1.63
2023-02-14T04:02:04.383Z,1.64
2023-02-14T04:04:36.010Z,1.64
2023-02-14T04:07:20.531Z,1.65
2023-02-14T04:09:48.857Z,1.55
2023-02-14T04:12:19.827Z,1.51
2023-02-14T04:14:51.639Z,1.51
2023-02-14T04:17:37.758Z,1.63
2023-02-14T04:20:06.644Z,1.63
2023-02-14T04:22:34.161Z,1.73
2023-02-14T04:25:01.595Z,1.79
2023-02-14T04:27:29.368Z,1.85
2023-02-14T04:29:56.968Z,1.84
2023-02-14T04:32:24.656Z,1.78
2023-02-14T04:34:52.523Z,1.77
2023-02-14T04:37:20.130Z,1.80
2023-02-14T04:39:47.614Z,1.74
2023-02-14T04:42:15.750Z,1.45
2023-02-14T04:44:43.256Z,1.67
2023-02-14T04:47:10.686Z,1.74
2023-02-14T04:49:38.689Z,1.71
2023-02-14T04:52:06.728Z,1.65
2023-02-14T04:54:34.211Z,1.51
2023-02-14T04:57:01.996Z,1.45
2023-02-14T04:59:29.411Z,1.06
2023-02-14T05:01:56.935Z,1.32
2023-02-14T05:04:25.015Z,1.23
2023-02-14T05:06:52.442Z,1.16
2023-02-14T05:09:20.093Z,1.06
2023-02-14T05:11:47.932Z,1.04
2023-02-14T05:14:15.455Z,0.84
2023-02-14T05:16:43.136Z,0.96
2023-02-14T05:19:10.969Z,0.88
2023-02-14T05:21:38.749Z,0.83
2023-02-14T05:24:06.340Z,0.81
2023-02-14T05:26:34.236Z,0.81
2023-02-14T05:29:01.767Z,0.79
2023-02-14T05:31:29.286Z,0.73
2023-02-14T05:33:57.063Z,0.72
2023-02-14T05:36:24.527Z,0.76
2023-02-14T05:38:51.986Z,0.77
2023-02-14T05:41:19.782Z,0.52
2023-02-14T05:43:47.239Z,0.39
2023-02-14T05:46:14.999Z,0.76
2023-02-14T05:48:42.877Z,0.63
2023-02-14T05:51:10.989Z,0.64
2023-02-14T05:53:39.356Z,0.63
2023-02-14T05:56:07.861Z,0.62
2023-02-14T05:58:35.505Z,0.68
2023-02-14T06:01:03.165Z,0.68
2023-02-14T06:03:30.938Z,0.75
2023-02-14T06:05:58.367Z,0.73
2023-02-14T06:08:25.787Z,0.73
2023-02-14T06:10:53.707Z,0.69
2023-02-14T06:13:21.215Z,0.68
2023-02-14T06:15:48.659Z,0.69
2023-02-14T06:18:16.715Z,0.61
2023-02-14T06:20:44.292Z,0.32
2023-02-14T06:23:15.348Z,0.30
2023-02-14T06:25:43.179Z,0.64
2023-02-14T06:28:11.521Z,0.67
2023-02-14T06:30:39.223Z,0.60
2023-02-14T06:33:07.225Z,0.30
2023-02-14T06:35:34.719Z,0.52
